sensor_id;sensor_type;location;lat;lon;timestamp;temperature;humidity
69204;DHT22;56317;27.658;85.326;2022-07-23T00:01:30;20.30;99.90
69204;DHT22;56317;27.658;85.326;2022-07-23T00:03:58;20.30;99.90
69204;DHT22;56317;27.658;85.326;2022-07-23T00:06:25;20.30;99.90
69204;DHT22;56317;27.658;85.326;2022-07-23T00:08:53;20.30;99.90
69204;DHT22;56317;27.658;85.326;2022-07-23T00:11:20;20.30;99.90
69204;DHT22;56317;27.658;85.326;2022-07-23T00:13:48;20.40;99.90
69204;DHT22;56317;27.658;85.326;2022-07-23T00:16:15;20.40;99.90
69204;DHT22;56317;27.658;85.326;2022-07-23T00:18:43;20.40;99.90
69204;DHT22;56317;27.658;85.326;2022-07-23T00:21:10;20.50;99.90
69204;DHT22;56317;27.658;85.326;2022-07-23T00:23:37;20.50;99.90
69204;DHT22;56317;27.658;85.326;2022-07-23T00:26:04;20.60;99.90
69204;DHT22;56317;27.658;85.326;2022-07-23T00:28:34;20.60;99.90
69204;DHT22;56317;27.658;85.326;2022-07-23T00:31:01;20.70;99.90
69204;DHT22;56317;27.658;85.326;2022-07-23T00:33:29;20.70;99.90
69204;DHT22;56317;27.658;85.326;2022-07-23T00:35:56;20.80;99.90
69204;DHT22;56317;27.658;85.326;2022-07-23T00:38:23;20.80;99.90
69204;DHT22;56317;27.658;85.326;2022-07-23T00:40:50;20.90;99.90
69204;DHT22;56317;27.658;85.326;2022-07-23T00:43:19;20.90;99.90
69204;DHT22;56317;27.658;85.326;2022-07-23T00:45:46;21.00;99.90
69204;DHT22;56317;27.658;85.326;2022-07-23T00:48:13;21.00;99.90
69204;DHT22;56317;27.658;85.326;2022-07-23T00:50:41;21.10;99.90
69204;DHT22;56317;27.658;85.326;2022-07-23T00:53:09;21.10;99.90
69204;DHT22;56317;27.658;85.326;2022-07-23T00:55:37;21.20;99.90
69204;DHT22;56317;27.658;85.326;2022-07-23T00:58:05;21.20;99.90
69204;DHT22;56317;27.658;85.326;2022-07-23T01:00:32;21.30;99.90
69204;DHT22;56317;27.658;85.326;2022-07-23T01:03:00;21.30;99.90
69204;DHT22;56317;27.658;85.326;2022-07-23T01:05:27;21.40;99.90
69204;DHT22;56317;27.658;85.326;2022-07-23T01:07:54;21.50;99.90
69204;DHT22;56317;27.658;85.326;2022-07-23T01:10:22;21.50;99.90
69204;DHT22;56317;27.658;85.326;2022-07-23T01:13:05;21.60;99.90
69204;DHT22;56317;27.658;85.326;2022-07-23T01:15:34;21.70;99.90
69204;DHT22;56317;27.658;85.326;2022-07-23T01:18:03;21.70;99.90
69204;DHT22;56317;27.658;85.326;2022-07-23T01:20:31;21.80;99.90
69204;DHT22;56317;27.658;85.326;2022-07-23T01:22:59;21.90;99.90
69204;DHT22;56317;27.658;85.326;2022-07-23T01:25:26;22.00;99.90
69204;DHT22;56317;27.658;85.326;2022-07-23T01:27:53;22.10;99.90
69204;DHT22;56317;27.658;85.326;2022-07-23T01:30:21;22.20;99.90
69204;DHT22;56317;27.658;85.326;2022-07-23T01:32:48;22.30;99.90
69204;DHT22;56317;27.658;85.326;2022-07-23T01:35:15;22.50;99.90
69204;DHT22;56317;27.658;85.326;2022-07-23T01:37:42;22.70;99.90
69204;DHT22;56317;27.658;85.326;2022-07-23T01:40:10;22.90;99.90
69204;DHT22;56317;27.658;85.326;2022-07-23T01:42:37;23.00;99.90
69204;DHT22;56317;27.658;85.326;2022-07-23T01:45:05;23.20;99.90
69204;DHT22;56317;27.658;85.326;2022-07-23T01:47:32;23.30;99.90
69204;DHT22;56317;27.658;85.326;2022-07-23T01:49:59;23.50;99.90
69204;DHT22;56317;27.658;85.326;2022-07-23T01:52:26;23.60;99.90
69204;DHT22;56317;27.658;85.326;2022-07-23T01:54:54;23.70;99.90
69204;DHT22;56317;27.658;85.326;2022-07-23T01:57:21;23.80;99.90
69204;DHT22;56317;27.658;85.326;2022-07-23T01:59:48;24.00;99.90
69204;DHT22;56317;27.658;85.326;2022-07-23T02:02:15;24.00;99.90
69204;DHT22;56317;27.658;85.326;2022-07-23T02:04:42;24.10;99.90
69204;DHT22;56317;27.658;85.326;2022-07-23T02:07:09;24.20;99.90
69204;DHT22;56317;27.658;85.326;2022-07-23T02:09:36;24.20;99.90
69204;DHT22;56317;27.658;85.326;2022-07-23T02:12:04;24.30;99.90
69204;DHT22;56317;27.658;85.326;2022-07-23T02:14:31;24.40;99.90
69204;DHT22;56317;27.658;85.326;2022-07-23T02:16:58;24.40;99.90
69204;DHT22;56317;27.658;85.326;2022-07-23T02:19:25;24.60;99.90
69204;DHT22;56317;27.658;85.326;2022-07-23T02:21:53;24.80;99.90
69204;DHT22;56317;27.658;85.326;2022-07-23T02:24:21;25.00;99.90
69204;DHT22;56317;27.658;85.326;2022-07-23T02:26:48;25.10;99.90
69204;DHT22;56317;27.658;85.326;2022-07-23T02:29:15;25.20;99.90
69204;DHT22;56317;27.658;85.326;2022-07-23T02:31:42;25.20;99.90
69204;DHT22;56317;27.658;85.326;2022-07-23T02:34:10;25.20;99.90
69204;DHT22;56317;27.658;85.326;2022-07-23T02:36:38;25.20;99.90
69204;DHT22;56317;27.658;85.326;2022-07-23T02:39:06;25.20;99.90
69204;DHT22;56317;27.658;85.326;2022-07-23T02:41:33;25.20;99.90
69204;DHT22;56317;27.658;85.326;2022-07-23T02:44:00;25.20;99.90
69204;DHT22;56317;27.658;85.326;2022-07-23T02:46:27;25.10;99.90
69204;DHT22;56317;27.658;85.326;2022-07-23T02:48:54;25.00;99.90
69204;DHT22;56317;27.658;85.326;2022-07-23T02:51:22;25.00;99.90
69204;DHT22;56317;27.658;85.326;2022-07-23T02:53:49;25.00;99.90
69204;DHT22;56317;27.658;85.326;2022-07-23T02:56:16;25.10;99.90
69204;DHT22;56317;27.658;85.326;2022-07-23T02:58:43;25.10;99.90
69204;DHT22;56317;27.658;85.326;2022-07-23T03:01:10;25.20;99.90
69204;DHT22;56317;27.658;85.326;2022-07-23T03:03:37;25.30;99.90
69204;DHT22;56317;27.658;85.326;2022-07-23T03:06:05;25.30;99.90
69204;DHT22;56317;27.658;85.326;2022-07-23T03:08:32;25.50;99.90
69204;DHT22;56317;27.658;85.326;2022-07-23T03:10:59;25.50;99.90
69204;DHT22;56317;27.658;85.326;2022-07-23T03:13:26;25.50;99.90
69204;DHT22;56317;27.658;85.326;2022-07-23T03:15:54;25.50;99.90
69204;DHT22;56317;27.658;85.326;2022-07-23T03:18:21;25.60;99.90
69204;DHT22;56317;27.658;85.326;2022-07-23T03:20:48;25.90;99.90
69204;DHT22;56317;27.658;85.326;2022-07-23T03:23:16;26.00;99.90
69204;DHT22;56317;27.658;85.326;2022-07-23T03:25:43;26.00;99.90
69204;DHT22;56317;27.658;85.326;2022-07-23T03:28:13;26.10;99.90
69204;DHT22;56317;27.658;85.326;2022-07-23T03:30:43;26.10;99.90
69204;DHT22;56317;27.658;85.326;2022-07-23T03:33:17;26.10;99.90
69204;DHT22;56317;27.658;85.326;2022-07-23T03:35:46;26.30;99.90
69204;DHT22;56317;27.658;85.326;2022-07-23T03:38:13;26.40;99.90
69204;DHT22;56317;27.658;85.326;2022-07-23T03:40:40;26.50;99.90
69204;DHT22;56317;27.658;85.326;2022-07-23T03:43:08;26.60;99.90
69204;DHT22;56317;27.658;85.326;2022-07-23T03:45:35;26.70;99.90
69204;DHT22;56317;27.658;85.326;2022-07-23T03:48:02;26.80;99.90
69204;DHT22;56317;27.658;85.326;2022-07-23T03:50:29;27.00;99.90
69204;DHT22;56317;27.658;85.326;2022-07-23T03:52:56;27.10;99.90
69204;DHT22;56317;27.658;85.326;2022-07-23T03:55:23;27.20;99.90
69204;DHT22;56317;27.658;85.326;2022-07-23T03:57:50;27.30;99.90
69204;DHT22;56317;27.658;85.326;2022-07-23T04:00:18;27.50;99.90
69204;DHT22;56317;27.658;85.326;2022-07-23T04:02:45;27.60;99.90
69204;DHT22;56317;27.658;85.326;2022-07-23T04:05:12;27.80;99.90
69204;DHT22;56317;27.658;85.326;2022-07-23T04:07:39;28.20;99.90
69204;DHT22;56317;27.658;85.326;2022-07-23T04:10:07;28.60;99.90
69204;DHT22;56317;27.658;85.326;2022-07-23T04:12:34;28.80;99.00
69204;DHT22;56317;27.658;85.326;2022-07-23T04:15:02;29.00;98.20
69204;DHT22;56317;27.658;85.326;2022-07-23T04:17:29;29.10;97.90
69204;DHT22;56317;27.658;85.326;2022-07-23T04:19:56;29.20;97.40
69204;DHT22;56317;27.658;85.326;2022-07-23T04:22:23;29.50;97.50
69204;DHT22;56317;27.658;85.326;2022-07-23T04:24:50;29.70;97.10
69204;DHT22;56317;27.658;85.326;2022-07-23T04:27:18;29.90;96.70
69204;DHT22;56317;27.658;85.326;2022-07-23T04:29:45;30.00;97.00
69204;DHT22;56317;27.658;85.326;2022-07-23T04:32:12;29.90;95.40
69204;DHT22;56317;27.658;85.326;2022-07-23T04:34:40;29.80;95.00
69204;DHT22;56317;27.658;85.326;2022-07-23T04:37:07;29.90;95.80
69204;DHT22;56317;27.658;85.326;2022-07-23T04:39:34;30.10;95.80
69204;DHT22;56317;27.658;85.326;2022-07-23T04:42:01;30.20;94.50
69204;DHT22;56317;27.658;85.326;2022-07-23T04:44:28;30.40;93.30
69204;DHT22;56317;27.658;85.326;2022-07-23T04:46:55;30.60;93.50
69204;DHT22;56317;27.658;85.326;2022-07-23T04:49:22;30.80;94.30
69204;DHT22;56317;27.658;85.326;2022-07-23T04:51:50;30.80;93.80
69204;DHT22;56317;27.658;85.326;2022-07-23T04:54:17;30.90;93.00
69204;DHT22;56317;27.658;85.326;2022-07-23T04:56:44;30.90;92.30
69204;DHT22;56317;27.658;85.326;2022-07-23T04:59:11;30.80;90.20
69204;DHT22;56317;27.658;85.326;2022-07-23T05:01:38;30.70;91.30
69204;DHT22;56317;27.658;85.326;2022-07-23T05:04:07;30.60;92.00
69204;DHT22;56317;27.658;85.326;2022-07-23T05:06:35;30.70;92.40
69204;DHT22;56317;27.658;85.326;2022-07-23T05:09:02;30.90;92.10
69204;DHT22;56317;27.658;85.326;2022-07-23T05:11:29;31.10;91.50
69204;DHT22;56317;27.658;85.326;2022-07-23T05:13:56;31.40;91.60
69204;DHT22;56317;27.658;85.326;2022-07-23T05:16:23;31.60;90.80
69204;DHT22;56317;27.658;85.326;2022-07-23T05:18:51;31.70;89.40
69204;DHT22;56317;27.658;85.326;2022-07-23T05:21:20;31.80;89.70
69204;DHT22;56317;27.658;85.326;2022-07-23T05:23:47;32.20;89.20
69204;DHT22;56317;27.658;85.326;2022-07-23T05:26:14;32.50;89.00
69204;DHT22;56317;27.658;85.326;2022-07-23T05:28:42;33.00;85.50
69204;DHT22;56317;27.658;85.326;2022-07-23T05:31:09;33.40;83.10
69204;DHT22;56317;27.658;85.326;2022-07-23T05:33:36;33.70;84.30
69204;DHT22;56317;27.658;85.326;2022-07-23T05:36:03;33.90;82.00
69204;DHT22;56317;27.658;85.326;2022-07-23T05:38:32;33.90;78.70
69204;DHT22;56317;27.658;85.326;2022-07-23T05:41:00;33.90;79.30
69204;DHT22;56317;27.658;85.326;2022-07-23T05:43:28;33.70;81.10
69204;DHT22;56317;27.658;85.326;2022-07-23T05:45:55;33.50;82.50
69204;DHT22;56317;27.658;85.326;2022-07-23T05:48:22;33.40;82.10
69204;DHT22;56317;27.658;85.326;2022-07-23T05:50:49;33.50;79.10
69204;DHT22;56317;27.658;85.326;2022-07-23T05:53:16;33.90;79.90
69204;DHT22;56317;27.658;85.326;2022-07-23T05:55:45;34.50;77.40
69204;DHT22;56317;27.658;85.326;2022-07-23T05:58:12;35.30;77.50
69204;DHT22;56317;27.658;85.326;2022-07-23T06:00:39;36.30;75.70
69204;DHT22;56317;27.658;85.326;2022-07-23T06:03:06;37.00;72.30
69204;DHT22;56317;27.658;85.326;2022-07-23T06:05:33;37.30;68.90
69204;DHT22;56317;27.658;85.326;2022-07-23T06:08:00;37.00;66.30
69204;DHT22;56317;27.658;85.326;2022-07-23T06:10:28;36.60;67.30
69204;DHT22;56317;27.658;85.326;2022-07-23T06:12:55;36.40;67.70
69204;DHT22;56317;27.658;85.326;2022-07-23T06:15:22;36.10;67.00
69204;DHT22;56317;27.658;85.326;2022-07-23T06:17:49;35.90;66.40
69204;DHT22;56317;27.658;85.326;2022-07-23T06:20:16;35.60;68.80
69204;DHT22;56317;27.658;85.326;2022-07-23T06:22:43;35.60;67.80
69204;DHT22;56317;27.658;85.326;2022-07-23T06:25:10;35.50;66.30
69204;DHT22;56317;27.658;85.326;2022-07-23T06:27:38;35.00;67.30
69204;DHT22;56317;27.658;85.326;2022-07-23T06:30:05;35.00;67.90
69204;DHT22;56317;27.658;85.326;2022-07-23T06:32:34;35.20;67.70
69204;DHT22;56317;27.658;85.326;2022-07-23T06:35:01;35.60;67.30
69204;DHT22;56317;27.658;85.326;2022-07-23T06:37:28;35.90;65.40
69204;DHT22;56317;27.658;85.326;2022-07-23T06:39:56;36.10;65.30
69204;DHT22;56317;27.658;85.326;2022-07-23T06:42:23;36.50;64.20
69204;DHT22;56317;27.658;85.326;2022-07-23T06:44:50;36.80;63.40
69204;DHT22;56317;27.658;85.326;2022-07-23T06:47:17;37.00;62.60
69204;DHT22;56317;27.658;85.326;2022-07-23T06:49:44;37.60;64.00
69204;DHT22;56317;27.658;85.326;2022-07-23T06:52:12;38.30;63.70
69204;DHT22;56317;27.658;85.326;2022-07-23T06:54:39;38.80;61.70
69204;DHT22;56317;27.658;85.326;2022-07-23T06:57:06;39.30;61.90
69204;DHT22;56317;27.658;85.326;2022-07-23T06:59:33;39.60;60.10
69204;DHT22;56317;27.658;85.326;2022-07-23T07:02:02;39.80;61.30
69204;DHT22;56317;27.658;85.326;2022-07-23T07:04:30;40.20;58.70
69204;DHT22;56317;27.658;85.326;2022-07-23T07:06:58;40.90;58.70
69204;DHT22;56317;27.658;85.326;2022-07-23T07:09:31;41.10;53.50
69204;DHT22;56317;27.658;85.326;2022-07-23T07:11:58;41.70;53.70
69204;DHT22;56317;27.658;85.326;2022-07-23T07:14:26;42.40;51.30
69204;DHT22;56317;27.658;85.326;2022-07-23T07:16:53;41.30;51.60
69204;DHT22;56317;27.658;85.326;2022-07-23T07:19:20;40.00;53.50
69204;DHT22;56317;27.658;85.326;2022-07-23T07:21:47;38.50;54.50
69204;DHT22;56317;27.658;85.326;2022-07-23T07:24:14;37.00;57.00
69204;DHT22;56317;27.658;85.326;2022-07-23T07:26:41;35.50;59.60
69204;DHT22;56317;27.658;85.326;2022-07-23T07:29:12;34.40;62.40
69204;DHT22;56317;27.658;85.326;2022-07-23T07:31:58;33.70;64.80
69204;DHT22;56317;27.658;85.326;2022-07-23T07:34:34;34.50;66.90
69204;DHT22;56317;27.658;85.326;2022-07-23T07:37:02;38.90;65.50
69204;DHT22;56317;27.658;85.326;2022-07-23T07:39:35;43.70;56.30
69204;DHT22;56317;27.658;85.326;2022-07-23T07:42:02;47.50;49.90
69204;DHT22;56317;27.658;85.326;2022-07-23T07:44:30;48.70;45.20
69204;DHT22;56317;27.658;85.326;2022-07-23T07:46:57;48.00;43.70
69204;DHT22;56317;27.658;85.326;2022-07-23T07:49:24;45.50;43.00
69204;DHT22;56317;27.658;85.326;2022-07-23T07:51:51;43.00;45.90
69204;DHT22;56317;27.658;85.326;2022-07-23T07:54:18;40.70;49.50
69204;DHT22;56317;27.658;85.326;2022-07-23T07:56:46;38.40;52.70
69204;DHT22;56317;27.658;85.326;2022-07-23T07:59:17;36.40;55.20
69204;DHT22;56317;27.658;85.326;2022-07-23T08:01:44;35.90;59.00
69204;DHT22;56317;27.658;85.326;2022-07-23T08:04:11;39.70;55.90
69204;DHT22;56317;27.658;85.326;2022-07-23T08:06:38;42.70;51.20
69204;DHT22;56317;27.658;85.326;2022-07-23T08:09:05;41.10;49.70
69204;DHT22;56317;27.658;85.326;2022-07-23T08:11:32;38.50;53.40
69204;DHT22;56317;27.658;85.326;2022-07-23T08:14:00;36.40;56.60
69204;DHT22;56317;27.658;85.326;2022-07-23T08:16:27;34.70;59.80
69204;DHT22;56317;27.658;85.326;2022-07-23T08:18:54;33.30;63.00
69204;DHT22;56317;27.658;85.326;2022-07-23T08:21:21;32.00;65.20
69204;DHT22;56317;27.658;85.326;2022-07-23T08:23:48;30.90;69.20
69204;DHT22;56317;27.658;85.326;2022-07-23T08:26:16;29.80;72.00
69204;DHT22;56317;27.658;85.326;2022-07-23T08:28:43;28.90;73.80
69204;DHT22;56317;27.658;85.326;2022-07-23T08:31:10;28.10;76.10
69204;DHT22;56317;27.658;85.326;2022-07-23T08:33:38;27.50;79.60
69204;DHT22;56317;27.658;85.326;2022-07-23T08:36:06;26.90;82.00
69204;DHT22;56317;27.658;85.326;2022-07-23T08:38:35;26.40;90.30
69204;DHT22;56317;27.658;85.326;2022-07-23T08:41:02;25.60;91.80
69204;DHT22;56317;27.658;85.326;2022-07-23T08:43:32;24.70;94.60
69204;DHT22;56317;27.658;85.326;2022-07-23T08:46:02;24.00;96.00
69204;DHT22;56317;27.658;85.326;2022-07-23T08:48:35;23.60;96.70
69204;DHT22;56317;27.658;85.326;2022-07-23T08:51:06;23.30;97.70
69204;DHT22;56317;27.658;85.326;2022-07-23T08:53:34;23.10;99.90
69204;DHT22;56317;27.658;85.326;2022-07-23T08:56:05;23.00;99.90
69204;DHT22;56317;27.658;85.326;2022-07-23T08:58:33;22.90;99.90
69204;DHT22;56317;27.658;85.326;2022-07-23T09:01:01;22.90;99.90
69204;DHT22;56317;27.658;85.326;2022-07-23T09:03:34;22.80;99.90
69204;DHT22;56317;27.658;85.326;2022-07-23T09:06:02;22.80;99.90
69204;DHT22;56317;27.658;85.326;2022-07-23T09:08:40;22.90;99.90
69204;DHT22;56317;27.658;85.326;2022-07-23T09:11:09;23.00;99.90
69204;DHT22;56317;27.658;85.326;2022-07-23T09:13:48;23.10;99.90
69204;DHT22;56317;27.658;85.326;2022-07-23T09:18:57;23.30;99.90
69204;DHT22;56317;27.658;85.326;2022-07-23T09:21:29;23.40;99.90
69204;DHT22;56317;27.658;85.326;2022-07-23T09:24:13;23.60;99.90
69204;DHT22;56317;27.658;85.326;2022-07-23T09:26:46;23.60;99.90
69204;DHT22;56317;27.658;85.326;2022-07-23T09:29:20;23.70;99.90
69204;DHT22;56317;27.658;85.326;2022-07-23T09:31:59;23.80;99.90
69204;DHT22;56317;27.658;85.326;2022-07-23T09:34:34;23.80;99.90
69204;DHT22;56317;27.658;85.326;2022-07-23T09:37:16;23.90;99.90
69204;DHT22;56317;27.658;85.326;2022-07-23T09:39:45;24.00;99.90
69204;DHT22;56317;27.658;85.326;2022-07-23T09:42:21;24.10;99.90
69204;DHT22;56317;27.658;85.326;2022-07-23T09:44:51;24.20;99.90
69204;DHT22;56317;27.658;85.326;2022-07-23T09:47:20;24.40;99.90
69204;DHT22;56317;27.658;85.326;2022-07-23T09:50:08;24.60;99.90
69204;DHT22;56317;27.658;85.326;2022-07-23T09:52:43;24.90;99.90
69204;DHT22;56317;27.658;85.326;2022-07-23T09:55:11;25.20;99.90
69204;DHT22;56317;27.658;85.326;2022-07-23T09:57:41;25.40;99.90
69204;DHT22;56317;27.658;85.326;2022-07-23T10:00:10;25.50;99.90
69204;DHT22;56317;27.658;85.326;2022-07-23T10:02:37;25.60;99.90
69204;DHT22;56317;27.658;85.326;2022-07-23T10:05:06;25.80;99.90
69204;DHT22;56317;27.658;85.326;2022-07-23T10:07:39;26.00;99.90
69204;DHT22;56317;27.658;85.326;2022-07-23T10:10:07;26.20;99.90
69204;DHT22;56317;27.658;85.326;2022-07-23T10:12:34;26.30;99.90
69204;DHT22;56317;27.658;85.326;2022-07-23T10:15:11;26.20;99.90
69204;DHT22;56317;27.658;85.326;2022-07-23T10:17:39;26.30;99.90
69204;DHT22;56317;27.658;85.326;2022-07-23T10:20:06;26.40;99.90
69204;DHT22;56317;27.658;85.326;2022-07-23T10:22:38;26.50;99.90
69204;DHT22;56317;27.658;85.326;2022-07-23T10:36:02;27.00;99.90
69204;DHT22;56317;27.658;85.326;2022-07-23T10:38:37;27.10;99.90
69204;DHT22;56317;27.658;85.326;2022-07-23T10:41:10;27.10;99.90
69204;DHT22;56317;27.658;85.326;2022-07-23T10:43:37;27.10;99.90
69204;DHT22;56317;27.658;85.326;2022-07-23T10:46:24;27.10;99.90
69204;DHT22;56317;27.658;85.326;2022-07-23T10:49:30;27.30;99.90
69204;DHT22;56317;27.658;85.326;2022-07-23T10:52:17;27.30;99.90
69204;DHT22;56317;27.658;85.326;2022-07-23T10:57:14;27.10;99.90
69204;DHT22;56317;27.658;85.326;2022-07-23T11:02:33;26.80;99.90
69204;DHT22;56317;27.658;85.326;2022-07-23T11:07:36;26.60;99.90
69204;DHT22;56317;27.658;85.326;2022-07-23T11:10:03;26.50;99.90
69204;DHT22;56317;27.658;85.326;2022-07-23T11:12:31;26.50;99.90
69204;DHT22;56317;27.658;85.326;2022-07-23T11:15:14;26.50;99.90
69204;DHT22;56317;27.658;85.326;2022-07-23T11:20:17;27.00;99.90
69204;DHT22;56317;27.658;85.326;2022-07-23T11:25:33;27.60;99.90
69204;DHT22;56317;27.658;85.326;2022-07-23T11:28:17;27.80;99.90
69204;DHT22;56317;27.658;85.326;2022-07-23T11:30:47;28.00;99.50
69204;DHT22;56317;27.658;85.326;2022-07-23T11:33:15;28.20;99.30
69204;DHT22;56317;27.658;85.326;2022-07-23T11:35:48;28.30;99.10
69204;DHT22;56317;27.658;85.326;2022-07-23T11:38:22;28.60;98.20
69204;DHT22;56317;27.658;85.326;2022-07-23T11:40:51;29.00;97.00
69204;DHT22;56317;27.658;85.326;2022-07-23T11:43:19;29.20;96.50
69204;DHT22;56317;27.658;85.326;2022-07-23T11:45:48;29.30;95.50
69204;DHT22;56317;27.658;85.326;2022-07-23T11:48:28;29.50;95.30
69204;DHT22;56317;27.658;85.326;2022-07-23T11:50:56;29.60;94.90
69204;DHT22;56317;27.658;85.326;2022-07-23T11:53:28;29.40;94.50
69204;DHT22;56317;27.658;85.326;2022-07-23T11:56:04;29.10;94.60
69204;DHT22;56317;27.658;85.326;2022-07-23T11:58:31;28.80;94.50
69204;DHT22;56317;27.658;85.326;2022-07-23T12:00:58;28.40;94.50
69204;DHT22;56317;27.658;85.326;2022-07-23T12:03:25;28.10;94.90
69204;DHT22;56317;27.658;85.326;2022-07-23T12:05:57;27.80;95.20
69204;DHT22;56317;27.658;85.326;2022-07-23T12:08:24;27.50;95.30
69204;DHT22;56317;27.658;85.326;2022-07-23T12:10:51;27.30;95.80
69204;DHT22;56317;27.658;85.326;2022-07-23T12:13:20;27.00;96.60
69204;DHT22;56317;27.658;85.326;2022-07-23T12:15:56;26.70;97.20
69204;DHT22;56317;27.658;85.326;2022-07-23T12:18:25;26.40;98.40
69204;DHT22;56317;27.658;85.326;2022-07-23T12:20:56;26.20;99.10
69204;DHT22;56317;27.658;85.326;2022-07-23T12:23:25;26.00;99.60
69204;DHT22;56317;27.658;85.326;2022-07-23T12:25:54;25.80;99.90
69204;DHT22;56317;27.658;85.326;2022-07-23T12:28:29;25.70;99.90
69204;DHT22;56317;27.658;85.326;2022-07-23T12:30:58;25.50;99.90
69204;DHT22;56317;27.658;85.326;2022-07-23T12:33:28;25.40;99.90
69204;DHT22;56317;27.658;85.326;2022-07-23T12:35:57;25.20;99.90
69204;DHT22;56317;27.658;85.326;2022-07-23T12:38:27;25.10;99.90
69204;DHT22;56317;27.658;85.326;2022-07-23T12:40:59;25.00;99.90
69204;DHT22;56317;27.658;85.326;2022-07-23T12:43:32;24.90;99.90
69204;DHT22;56317;27.658;85.326;2022-07-23T12:46:09;24.70;99.90
69204;DHT22;56317;27.658;85.326;2022-07-23T12:48:38;24.50;99.90
69204;DHT22;56317;27.658;85.326;2022-07-23T12:51:06;24.40;99.90
69204;DHT22;56317;27.658;85.326;2022-07-23T12:53:49;24.30;99.90
69204;DHT22;56317;27.658;85.326;2022-07-23T12:56:39;24.10;99.90
69204;DHT22;56317;27.658;85.326;2022-07-23T12:59:09;24.00;99.90
69204;DHT22;56317;27.658;85.326;2022-07-23T13:01:40;24.00;99.90
69204;DHT22;56317;27.658;85.326;2022-07-23T13:04:13;23.90;99.90
69204;DHT22;56317;27.658;85.326;2022-07-23T13:06:47;23.80;99.90
69204;DHT22;56317;27.658;85.326;2022-07-23T13:09:19;23.80;99.90
69204;DHT22;56317;27.658;85.326;2022-07-23T13:11:47;23.80;99.90
69204;DHT22;56317;27.658;85.326;2022-07-23T13:14:15;23.70;99.90
69204;DHT22;56317;27.658;85.326;2022-07-23T13:16:47;23.70;99.90
69204;DHT22;56317;27.658;85.326;2022-07-23T13:19:15;23.70;99.90
69204;DHT22;56317;27.658;85.326;2022-07-23T13:21:43;23.60;99.90
69204;DHT22;56317;27.658;85.326;2022-07-23T13:24:13;23.60;99.90
69204;DHT22;56317;27.658;85.326;2022-07-23T13:26:49;23.60;99.90
69204;DHT22;56317;27.658;85.326;2022-07-23T13:29:21;23.60;99.90
69204;DHT22;56317;27.658;85.326;2022-07-23T13:31:48;23.60;99.90
69204;DHT22;56317;27.658;85.326;2022-07-23T13:34:15;23.60;99.90
69204;DHT22;56317;27.658;85.326;2022-07-23T13:36:42;23.50;99.90
69204;DHT22;56317;27.658;85.326;2022-07-23T13:39:09;23.50;99.90
69204;DHT22;56317;27.658;85.326;2022-07-23T13:41:38;23.50;99.90
69204;DHT22;56317;27.658;85.326;2022-07-23T13:44:06;23.40;99.90
69204;DHT22;56317;27.658;85.326;2022-07-23T13:46:33;23.40;99.90
69204;DHT22;56317;27.658;85.326;2022-07-23T13:49:01;23.40;99.90
69204;DHT22;56317;27.658;85.326;2022-07-23T13:51:29;23.40;99.90
69204;DHT22;56317;27.658;85.326;2022-07-23T13:53:56;23.40;99.90
69204;DHT22;56317;27.658;85.326;2022-07-23T13:56:25;23.40;99.90
69204;DHT22;56317;27.658;85.326;2022-07-23T13:58:52;23.40;99.90
69204;DHT22;56317;27.658;85.326;2022-07-23T14:01:19;23.50;99.90
69204;DHT22;56317;27.658;85.326;2022-07-23T14:03:47;23.40;99.90
69204;DHT22;56317;27.658;85.326;2022-07-23T14:06:14;23.40;99.90
69204;DHT22;56317;27.658;85.326;2022-07-23T14:08:41;23.40;99.90
69204;DHT22;56317;27.658;85.326;2022-07-23T14:11:08;23.40;99.90
69204;DHT22;56317;27.658;85.326;2022-07-23T14:13:35;23.40;99.90
69204;DHT22;56317;27.658;85.326;2022-07-23T14:16:02;23.30;99.90
69204;DHT22;56317;27.658;85.326;2022-07-23T14:18:30;23.30;99.90
69204;DHT22;56317;27.658;85.326;2022-07-23T14:20:57;23.30;99.90
69204;DHT22;56317;27.658;85.326;2022-07-23T14:23:24;23.30;99.90
69204;DHT22;56317;27.658;85.326;2022-07-23T14:25:51;23.20;99.90
69204;DHT22;56317;27.658;85.326;2022-07-23T14:28:18;23.10;99.90
69204;DHT22;56317;27.658;85.326;2022-07-23T14:30:45;23.00;99.90
69204;DHT22;56317;27.658;85.326;2022-07-23T14:33:13;22.80;99.90
69204;DHT22;56317;27.658;85.326;2022-07-23T14:35:41;22.70;99.90
69204;DHT22;56317;27.658;85.326;2022-07-23T14:38:09;22.60;99.90
69204;DHT22;56317;27.658;85.326;2022-07-23T14:40:36;22.40;99.90
69204;DHT22;56317;27.658;85.326;2022-07-23T14:43:03;22.30;99.90
69204;DHT22;56317;27.658;85.326;2022-07-23T14:45:30;22.20;99.90
69204;DHT22;56317;27.658;85.326;2022-07-23T14:47:57;22.20;99.90
69204;DHT22;56317;27.658;85.326;2022-07-23T14:50:25;22.10;99.90
69204;DHT22;56317;27.658;85.326;2022-07-23T14:52:52;22.10;99.90
69204;DHT22;56317;27.658;85.326;2022-07-23T14:55:19;22.10;99.90
69204;DHT22;56317;27.658;85.326;2022-07-23T14:57:47;22.10;99.90
69204;DHT22;56317;27.658;85.326;2022-07-23T15:00:14;22.10;99.90
69204;DHT22;56317;27.658;85.326;2022-07-23T15:02:41;22.10;99.90
69204;DHT22;56317;27.658;85.326;2022-07-23T15:05:08;22.00;99.90
69204;DHT22;56317;27.658;85.326;2022-07-23T15:07:37;22.00;99.90
69204;DHT22;56317;27.658;85.326;2022-07-23T15:10:04;22.00;99.90
69204;DHT22;56317;27.658;85.326;2022-07-23T15:12:31;22.00;99.90
69204;DHT22;56317;27.658;85.326;2022-07-23T15:14:58;21.90;99.90
69204;DHT22;56317;27.658;85.326;2022-07-23T15:17:26;21.90;99.90
69204;DHT22;56317;27.658;85.326;2022-07-23T15:19:53;21.80;99.90
69204;DHT22;56317;27.658;85.326;2022-07-23T15:22:21;21.80;99.90
69204;DHT22;56317;27.658;85.326;2022-07-23T15:24:48;21.80;99.90
69204;DHT22;56317;27.658;85.326;2022-07-23T15:27:15;21.80;99.90
69204;DHT22;56317;27.658;85.326;2022-07-23T15:29:44;21.80;99.90
69204;DHT22;56317;27.658;85.326;2022-07-23T15:32:11;21.80;99.90
69204;DHT22;56317;27.658;85.326;2022-07-23T15:34:39;21.70;99.90
69204;DHT22;56317;27.658;85.326;2022-07-23T15:37:06;21.80;99.90
69204;DHT22;56317;27.658;85.326;2022-07-23T15:39:34;21.70;99.90
69204;DHT22;56317;27.658;85.326;2022-07-23T15:42:02;21.70;99.90
69204;DHT22;56317;27.658;85.326;2022-07-23T15:44:29;21.70;99.90
69204;DHT22;56317;27.658;85.326;2022-07-23T15:46:57;21.70;99.90
69204;DHT22;56317;27.658;85.326;2022-07-23T15:49:24;21.70;99.90
69204;DHT22;56317;27.658;85.326;2022-07-23T15:51:51;21.70;99.90